Time;durP1;ratioP1;P1;durP2;ratioP2;P2;SDS_P1;SDS_P2;PMS_P1;PMS_P2;Temp;Humidity;BMP_temperature;BMP_pressure;BME280_temperature;BME280_humidity;BME280_pressure;Samples;Min_cycle;Max_cycle;Signal;HPM_P1;HPM_P2
2023/10/15 00:00:51;;;;;;;2.90;1.00;;;18.40;90.90;;;;;;4998868;28;20554;-84
2023/10/15 00:03:17;;;;;;;3.40;0.88;;;18.40;91.00;;;;;;4998610;28;20503;-84
2023/10/15 00:05:43;;;;;;;3.17;0.90;;;18.30;91.20;;;;;;4999014;28;20065;-84
2023/10/15 00:08:09;;;;;;;3.60;0.98;;;18.30;91.00;;;;;;4998960;28;20080;-84
2023/10/15 00:10:36;;;;;;;3.17;0.73;;;18.30;91.00;;;;;;4998843;28;20021;-84
2023/10/15 00:13:02;;;;;;;2.92;1.00;;;18.30;91.00;;;;;;4998616;28;20030;-83
2023/10/15 00:15:29;;;;;;;3.13;0.82;;;18.30;91.00;;;;;;4998874;28;20676;-84
2023/10/15 00:18:00;;;;;;;1.90;0.70;;;18.30;91.00;;;;;;4998630;28;20026;-84
2023/10/15 00:20:31;;;;;;;2.83;0.70;;;18.30;91.20;;;;;;5016376;28;20466;-84
2023/10/15 00:22:58;;;;;;;3.35;1.00;;;18.30;91.00;;;;;;4998201;28;20045;-83
2023/10/15 00:25:23;;;;;;;2.63;0.82;;;18.30;91.00;;;;;;4998554;28;20029;-84
2023/10/15 00:27:54;;;;;;;3.05;0.75;;;18.30;91.00;;;;;;4998553;28;20022;-84
2023/10/15 00:30:31;;;;;;;2.38;0.80;;;18.30;91.00;;;;;;4998641;28;20392;-84
2023/10/15 00:32:57;;;;;;;1.90;0.73;;;18.30;91.00;;;;;;4998269;28;20034;-84
2023/10/15 00:35:25;;;;;;;3.33;1.10;;;18.30;91.00;;;;;;4998828;28;20531;-84
2023/10/15 00:37:57;;;;;;;2.60;0.85;;;18.30;91.00;;;;;;4998350;28;20026;-84
2023/10/15 00:40:24;;;;;;;2.85;0.90;;;18.30;91.00;;;;;;4998444;28;20033;-84
2023/10/15 00:42:50;;;;;;;2.92;0.82;;;18.30;91.00;;;;;;4998150;28;20510;-84
2023/10/15 00:45:17;;;;;;;2.97;0.88;;;18.30;91.00;;;;;;4997595;28;20030;-84
2023/10/15 00:47:45;;;;;;;2.42;0.80;;;18.30;91.00;;;;;;4998023;28;20496;-84
2023/10/15 00:50:12;;;;;;;2.80;0.80;;;18.40;91.00;;;;;;4998054;28;20029;-84
2023/10/15 00:52:42;;;;;;;1.95;0.70;;;18.40;91.00;;;;;;4997677;28;20107;-84
2023/10/15 00:55:16;;;;;;;2.38;0.90;;;18.30;90.90;;;;;;4996862;28;20028;-84
2023/10/15 00:57:43;;;;;;;2.42;0.90;;;18.30;90.90;;;;;;4998008;28;20061;-84
2023/10/15 01:00:39;;;;;;;1.98;0.80;;;18.30;90.90;;;;;;4997841;28;20036;-84
2023/10/15 01:02:57;;;;;;;3.47;0.88;;;18.30;91.00;;;;;;5015050;28;20042;-85
2023/10/15 01:05:25;;;;;;;3.25;1.10;;;18.30;91.00;;;;;;4997686;28;20476;-84
2023/10/15 01:07:54;;;;;;;2.88;1.00;;;18.30;91.00;;;;;;5015322;28;20396;-84
2023/10/15 01:10:32;;;;;;;3.65;0.95;;;18.30;91.00;;;;;;4997782;28;20121;-84
2023/10/15 01:13:05;;;;;;;2.30;0.93;;;18.30;91.00;;;;;;4997456;28;20036;-83
2023/10/15 01:15:34;;;;;;;3.08;0.93;;;18.30;91.20;;;;;;5015277;28;20021;-84
2023/10/15 01:18:06;;;;;;;3.42;1.05;;;18.30;91.00;;;;;;4997610;28;20022;-84
2023/10/15 01:20:36;;;;;;;3.03;1.00;;;18.30;91.00;;;;;;5015209;28;20049;-84
2023/10/15 01:23:02;;;;;;;3.15;0.80;;;18.30;91.00;;;;;;5014664;28;20030;-84
2023/10/15 01:25:32;;;;;;;3.10;0.90;;;18.20;91.00;;;;;;5014973;28;20026;-84
2023/10/15 01:28:00;;;;;;;2.05;0.75;;;18.30;91.00;;;;;;4997455;28;20476;-84
2023/10/15 01:30:35;;;;;;;2.92;0.95;;;18.20;91.00;;;;;;4997335;28;20451;-84
2023/10/15 01:33:06;;;;;;;2.00;0.80;;;18.20;91.00;;;;;;4997218;28;20033;-84
2023/10/15 01:35:32;;;;;;;2.45;0.85;;;18.20;91.00;;;;;;4997379;28;20025;-84
2023/10/15 01:38:03;;;;;;;2.83;0.95;;;18.30;91.10;;;;;;4997228;28;20473;-84
2023/10/15 01:40:37;;;;;;;3.17;0.98;;;18.20;91.00;;;;;;4997267;28;20030;-84
2023/10/15 01:43:07;;;;;;;2.85;0.90;;;18.30;91.00;;;;;;4996831;28;20037;-84
2023/10/15 01:45:37;;;;;;;4.03;0.90;;;18.30;91.00;;;;;;4997091;28;20025;-84
2023/10/15 01:51:04;;;;;;;2.88;0.70;;;18.30;91.00;;;;;;5015480;28;20365;-84
2023/10/15 01:53:24;;;;;;;3.58;1.00;;;18.30;91.00;;;;;;5010333;28;20514;-84
2023/10/15 01:55:59;;;;;;;2.33;0.88;;;18.30;91.00;;;;;;4997261;28;20034;-84
2023/10/15 01:58:31;;;;;;;2.92;0.90;;;18.30;90.90;;;;;;5014498;28;20053;-84
2023/10/15 02:01:31;;;;;;;;;;;18.30;90.90;;;;;;4997276;28;20026;-84
2023/10/15 02:03:56;;;;;;;2.22;0.73;;;18.30;90.90;;;;;;4996365;28;19976;-84
2023/10/15 02:06:22;;;;;;;3.10;0.93;;;18.30;91.00;;;;;;5004313;28;20053;-84
2023/10/15 02:08:51;;;;;;;2.05;0.60;;;18.30;91.00;;;;;;5016326;28;20021;-84
2023/10/15 02:11:24;;;;;;;1.70;0.77;;;18.20;91.00;;;;;;5016291;28;20017;-84
2023/10/15 02:13:50;;;;;;;3.58;0.93;;;18.30;91.00;;;;;;5033520;28;20037;-84
2023/10/15 02:16:17;;;;;;;2.67;0.80;;;18.20;91.00;;;;;;5015925;28;20026;-84
2023/10/15 02:18:46;;;;;;;2.83;0.80;;;18.20;91.00;;;;;;5016055;28;20029;-84
2023/10/15 02:21:17;;;;;;;2.35;0.70;;;18.20;91.00;;;;;;5033663;28;20025;-84
2023/10/15 02:23:52;;;;;;;3.30;0.90;;;18.20;91.00;;;;;;5015858;28;20465;-84
2023/10/15 02:26:18;;;;;;;1.83;0.75;;;18.20;91.00;;;;;;5016220;28;20060;-84
2023/10/15 02:28:44;;;;;;;4.38;1.20;;;18.20;91.00;;;;;;5015904;28;20124;-84
2023/10/15 02:31:14;;;;;;;3.85;0.88;;;18.20;91.00;;;;;;5015992;28;20057;-84
2023/10/15 02:33:39;;;;;;;3.90;1.02;;;18.20;91.00;;;;;;5015611;28;20030;-84
2023/10/15 02:36:07;;;;;;;3.00;0.90;;;18.20;91.00;;;;;;5015771;28;20028;-83
2023/10/15 02:38:37;;;;;;;2.90;1.02;;;18.20;91.00;;;;;;5016873;28;20022;-84
2023/10/15 02:41:06;;;;;;;3.92;1.02;;;18.20;91.00;;;;;;5015737;28;20021;-84
2023/10/15 02:43:36;;;;;;;2.75;0.80;;;18.10;91.00;;;;;;5015309;28;20082;-84
2023/10/15 02:48:47;;;;;;;2.72;0.77;;;18.20;91.20;;;;;;5033191;28;20025;-84
2023/10/15 02:51:17;;;;;;;2.28;0.77;;;18.20;91.00;;;;;;5014607;28;20105;-83
2023/10/15 02:53:50;;;;;;;2.65;0.75;;;18.20;91.00;;;;;;5025306;28;20037;-84
2023/10/15 02:56:17;;;;;;;2.78;0.98;;;18.20;91.00;;;;;;5015447;28;20032;-84
2023/10/15 02:58:44;;;;;;;3.17;0.70;;;18.20;91.00;;;;;;5015428;28;20442;-84
2023/10/15 03:01:20;;;;;;;2.47;0.85;;;18.30;91.00;;;;;;5033036;28;20022;-84
2023/10/15 03:03:50;;;;;;;2.47;0.90;;;18.20;90.90;;;;;;5032707;28;20029;-84
2023/10/15 03:06:41;;;;;;;2.63;0.93;;;18.20;90.90;;;;;;5014141;28;20056;-84
2023/10/15 03:09:11;;;;;;;1.92;0.75;;;18.20;90.90;;;;;;5033103;28;20075;-84
2023/10/15 03:11:38;;;;;;;2.45;0.80;;;18.20;90.90;;;;;;5015074;28;20099;-84
2023/10/15 03:14:06;;;;;;;2.53;0.80;;;18.20;90.90;;;;;;5014869;28;20029;-84
2023/10/15 03:16:33;;;;;;;1.88;0.77;;;18.20;91.00;;;;;;5014964;28;20029;-84
2023/10/15 03:19:09;;;;;;;2.83;1.00;;;18.20;91.00;;;;;;5032591;28;20029;-84
2023/10/15 03:21:39;;;;;;;1.60;0.88;;;18.20;91.00;;;;;;5015121;28;20450;-84
2023/10/15 03:24:05;;;;;;;1.92;0.80;;;18.10;90.90;;;;;;5014805;28;20399;-84
2023/10/15 03:26:34;;;;;;;2.50;1.00;;;18.20;91.00;;;;;;5017502;28;20032;-84
2023/10/15 03:29:13;;;;;;;3.10;0.80;;;18.20;91.00;;;;;;4995256;28;20025;-84
2023/10/15 03:31:45;;;;;;;2.47;0.88;;;18.20;91.00;;;;;;5012791;28;20459;-84
2023/10/15 03:39:15;;;;;;;2.08;0.80;;;18.20;91.00;;;;;;5013041;28;20046;-84
2023/10/15 03:41:49;;;;;;;3.15;1.05;;;18.20;91.20;;;;;;4995229;28;20547;-84
2023/10/15 03:44:23;;;;;;;1.30;0.70;;;18.10;91.00;;;;;;5012717;28;20022;-84
2023/10/15 03:46:48;;;;;;;2.83;0.80;;;18.10;91.00;;;;;;4995318;28;20026;-84
2023/10/15 03:49:14;;;;;;;2.65;0.75;;;18.20;91.00;;;;;;4995267;28;20388;-84
2023/10/15 03:51:43;;;;;;;2.25;0.95;;;18.10;90.90;;;;;;4995284;28;20025;-84
2023/10/15 03:54:13;;;;;;;2.42;0.95;;;18.10;90.90;;;;;;5007133;28;20021;-84
2023/10/15 03:56:43;;;;;;;2.10;0.80;;;18.20;91.00;;;;;;5014591;28;20025;-84
2023/10/15 03:59:11;;;;;;;2.35;0.73;;;18.10;90.90;;;;;;5032484;28;20021;-84
2023/10/15 04:01:42;;;;;;;2.60;0.73;;;18.20;91.00;;;;;;5032439;28;20077;-84
2023/10/15 04:04:09;;;;;;;1.98;0.70;;;18.20;91.00;;;;;;5032212;28;20403;-84
2023/10/15 04:06:35;;;;;;;2.85;0.60;;;18.20;90.90;;;;;;5014556;28;20022;-84
2023/10/15 04:11:41;;;;;;;3.30;1.10;;;18.20;90.90;;;;;;5032505;28;20017;-84
2023/10/15 04:16:51;;;;;;;1.92;0.70;;;18.20;90.90;;;;;;5032523;28;20164;-84
2023/10/15 04:19:19;;;;;;;1.83;0.75;;;18.10;90.90;;;;;;5014660;28;20056;-84
2023/10/15 04:21:45;;;;;;;1.13;0.40;;;18.10;90.90;;;;;;5014493;28;20032;-84
2023/10/15 04:24:18;;;;;;;1.95;0.65;;;18.20;90.90;;;;;;5014249;28;20109;-84
2023/10/15 04:26:48;;;;;;;1.60;0.70;;;18.10;90.90;;;;;;5014430;28;20546;-84
2023/10/15 04:29:17;;;;;;;2.05;0.70;;;18.10;90.90;;;;;;5034385;28;20056;-84
2023/10/15 04:32:00;;;;;;;3.10;0.80;;;18.10;90.90;;;;;;5018112;28;20068;-84
2023/10/15 04:34:28;;;;;;;2.45;0.90;;;18.20;91.00;;;;;;5017925;28;20029;-84
2023/10/15 04:36:57;;;;;;;2.30;0.80;;;18.10;90.90;;;;;;5018002;28;20049;-84
2023/10/15 04:39:23;;;;;;;1.23;0.50;;;18.10;90.90;;;;;;5017821;28;20049;-84
2023/10/15 04:41:55;;;;;;;1.00;0.47;;;18.10;91.00;;;;;;5017769;28;20060;-84
2023/10/15 04:44:31;;;;;;;2.08;0.60;;;18.10;90.90;;;;;;5017460;28;20112;-84
2023/10/15 04:47:05;;;;;;;1.50;0.63;;;18.10;90.90;;;;;;5017976;28;20021;-84
2023/10/15 04:49:31;;;;;;;1.88;0.65;;;18.10;90.90;;;;;;5017824;28;20025;-84
2023/10/15 04:51:58;;;;;;;2.22;0.85;;;18.10;91.00;;;;;;5017164;28;20017;-85
2023/10/15 04:54:23;;;;;;;1.35;0.70;;;18.10;90.90;;;;;;5034182;28;20045;-84
2023/10/15 04:56:49;;;;;;;2.60;0.70;;;18.10;91.00;;;;;;5017673;28;20076;-84
2023/10/15 04:59:15;;;;;;;1.75;0.70;;;18.10;90.90;;;;;;5017534;28;20117;-84
2023/10/15 05:01:42;;;;;;;1.25;0.50;;;18.10;90.90;;;;;;5017605;28;20500;-84
2023/10/15 05:04:09;;;;;;;1.80;0.80;;;18.10;90.90;;;;;;5034342;28;20037;-84
2023/10/15 05:06:35;;;;;;;1.48;0.55;;;18.10;90.90;;;;;;5017329;28;20025;-84
2023/10/15 05:09:00;;;;;;;2.63;0.80;;;18.10;90.90;;;;;;5017578;28;20026;-84
2023/10/15 05:11:28;;;;;;;2.38;0.65;;;18.10;90.90;;;;;;5017135;28;20028;-84
2023/10/15 05:13:53;;;;;;;1.88;0.60;;;18.20;90.90;;;;;;5034761;28;20391;-84
2023/10/15 05:16:19;;;;;;;2.88;0.60;;;18.10;90.80;;;;;;5017204;28;20035;-84
2023/10/15 05:18:47;;;;;;;1.10;0.50;;;18.10;90.80;;;;;;5017237;28;20080;-84
2023/10/15 05:21:13;;;;;;;3.05;0.70;;;18.10;90.90;;;;;;5017082;28;20117;-84
2023/10/15 05:23:39;;;;;;;2.38;0.82;;;18.10;90.90;;;;;;5016780;28;20124;-83
2023/10/15 05:26:05;;;;;;;1.70;0.60;;;18.10;90.90;;;;;;5034675;28;20022;-84
2023/10/15 05:28:31;;;;;;;2.55;0.60;;;18.10;90.90;;;;;;5017171;28;20140;-84
2023/10/15 05:31:00;;;;;;;0.75;0.60;;;18.10;90.90;;;;;;5017184;28;20017;-84
2023/10/15 05:33:26;;;;;;;2.60;0.70;;;18.10;90.90;;;;;;5016713;28;20025;-84
2023/10/15 05:35:52;;;;;;;1.63;0.57;;;18.10;90.90;;;;;;5016869;28;20502;-84
2023/10/15 05:38:17;;;;;;;1.40;0.60;;;18.10;91.00;;;;;;5034694;28;20029;-84
2023/10/15 05:40:46;;;;;;;1.63;0.60;;;18.00;90.90;;;;;;5016197;28;20026;-84
2023/10/15 05:43:11;;;;;;;1.38;0.50;;;18.00;90.90;;;;;;5016366;28;20447;-84
2023/10/15 05:45:37;;;;;;;1.27;0.60;;;18.00;90.90;;;;;;5034362;28;20056;-84
2023/10/15 05:48:03;;;;;;;1.42;0.50;;;18.00;91.10;;;;;;5034462;28;20025;-84
2023/10/15 05:50:29;;;;;;;2.63;0.80;;;18.00;90.90;;;;;;5016638;28;20076;-84
2023/10/15 05:52:54;;;;;;;0.93;0.40;;;18.00;90.90;;;;;;5034148;28;20032;-84
2023/10/15 05:55:20;;;;;;;1.77;0.80;;;18.10;90.90;;;;;;5016501;28;20096;-84
2023/10/15 05:57:46;;;;;;;1.25;0.55;;;18.00;90.90;;;;;;5016684;28;20403;-84
2023/10/15 06:00:19;;;;;;;2.22;0.65;;;18.00;90.90;;;;;;5016537;28;20434;-84
2023/10/15 06:02:48;;;;;;;0.77;0.50;;;18.00;90.90;;;;;;5016218;28;20052;-84
2023/10/15 06:05:14;;;;;;;1.23;0.50;;;18.00;90.90;;;;;;5034018;28;20032;-83
2023/10/15 06:07:40;;;;;;;2.58;0.57;;;18.10;90.90;;;;;;5016298;28;20029;-84
2023/10/15 06:10:08;;;;;;;1.17;0.50;;;18.10;90.90;;;;;;5033911;28;20021;-84
2023/10/15 06:12:34;;;;;;;1.48;0.60;;;18.00;90.90;;;;;;5016365;28;20112;-84
2023/10/15 06:14:59;;;;;;;1.17;0.63;;;18.10;90.90;;;;;;5016102;28;20673;-84
2023/10/15 06:17:25;;;;;;;2.63;0.80;;;18.10;90.80;;;;;;5015953;28;20025;-84
2023/10/15 06:19:51;;;;;;;1.52;0.63;;;18.00;90.80;;;;;;5033471;28;20092;-83
2023/10/15 06:22:19;;;;;;;1.30;0.57;;;18.10;90.80;;;;;;5012586;28;20084;-84
2023/10/15 06:24:46;;;;;;;1.17;0.50;;;18.00;90.80;;;;;;5012950;28;20033;-86
2023/10/15 06:27:12;;;;;;;1.65;0.60;;;18.10;90.80;;;;;;5030561;28;20506;-85
2023/10/15 06:29:38;;;;;;;0.60;0.50;;;18.00;90.80;;;;;;5014643;28;20537;-84
2023/10/15 06:32:04;;;;;;;1.30;0.52;;;18.00;90.80;;;;;;5008610;28;20030;-84
2023/10/15 06:34:30;;;;;;;2.00;0.70;;;18.00;90.80;;;;;;5019468;28;20030;-84
2023/10/15 06:36:55;;;;;;;1.10;0.50;;;18.00;90.80;;;;;;5002118;28;20806;-83
2023/10/15 06:39:21;;;;;;;1.67;0.50;;;18.00;90.80;;;;;;5001071;28;20100;-85
2023/10/15 06:41:47;;;;;;;0.93;0.40;;;18.10;90.80;;;;;;5001672;28;20668;-85
2023/10/15 06:44:14;;;;;;;2.03;0.70;;;18.00;90.80;;;;;;5019197;28;20058;-84
2023/10/15 06:46:39;;;;;;;1.48;0.70;;;18.00;90.80;;;;;;5000797;28;20105;-84
2023/10/15 06:49:07;;;;;;;0.90;0.55;;;18.00;90.80;;;;;;5000898;28;20033;-84
2023/10/15 06:51:33;;;;;;;0.55;0.45;;;18.00;90.80;;;;;;4999630;28;20077;-85
2023/10/15 06:53:59;;;;;;;1.90;0.50;;;18.00;90.80;;;;;;4999948;28;20026;-83
2023/10/15 06:56:27;;;;;;;1.50;0.50;;;18.00;90.80;;;;;;5000899;28;20061;-84
2023/10/15 06:58:59;;;;;;;1.48;0.60;;;18.00;90.80;;;;;;4999462;28;20038;-86
2023/10/15 07:01:26;;;;;;;2.67;0.82;;;18.00;90.80;;;;;;5000601;28;20045;-85
2023/10/15 07:03:52;;;;;;;0.98;0.40;;;18.00;90.80;;;;;;5000467;28;20038;-84
2023/10/15 07:06:19;;;;;;;1.08;0.57;;;18.00;90.80;;;;;;5001118;28;20444;-85
2023/10/15 07:08:45;;;;;;;2.00;0.50;;;18.10;91.00;;;;;;5002754;28;20040;-85
2023/10/15 07:11:10;;;;;;;1.60;0.50;;;17.90;90.70;;;;;;5002791;28;20503;-85
2023/10/15 07:13:42;;;;;;;1.23;0.57;;;18.10;90.80;;;;;;5001110;28;20021;-88
2023/10/15 07:16:19;;;;;;;1.90;0.60;;;18.10;90.70;;;;;;5002369;28;20037;-85
2023/10/15 07:18:45;;;;;;;1.02;0.43;;;18.20;90.70;;;;;;5001859;28;20053;-86
2023/10/15 07:21:11;;;;;;;0.93;0.43;;;18.10;90.60;;;;;;4999881;28;20034;-87
2023/10/15 07:23:39;;;;;;;1.23;0.50;;;18.20;90.60;;;;;;4997893;28;20041;-86
2023/10/15 07:26:08;;;;;;;2.60;0.70;;;18.10;90.60;;;;;;4997598;28;20055;-86
2023/10/15 07:28:33;;;;;;;2.28;0.75;;;18.10;90.20;;;;;;4995270;28;20117;-85
2023/10/15 07:30:59;;;;;;;1.85;0.60;;;18.00;90.50;;;;;;4995457;28;20482;-85
2023/10/15 07:33:25;;;;;;;2.85;0.70;;;18.10;90.30;;;;;;4995157;28;20026;-87
2023/10/15 07:35:51;;;;;;;2.53;0.60;;;18.10;90.30;;;;;;4995355;28;20491;-86
2023/10/15 07:38:16;;;;;;;3.22;0.60;;;18.00;90.30;;;;;;4995334;28;20029;-86
2023/10/15 07:40:43;;;;;;;1.38;0.60;;;18.00;90.30;;;;;;4995198;28;20030;-86
2023/10/15 07:43:08;;;;;;;1.65;0.70;;;18.00;90.30;;;;;;4995004;28;20395;-86
2023/10/15 07:45:35;;;;;;;3.50;1.00;;;18.10;90.30;;;;;;4995265;28;20022;-85
2023/10/15 07:48:02;;;;;;;2.83;0.80;;;18.00;90.30;;;;;;4995293;28;20022;-86
2023/10/15 07:50:34;;;;;;;1.95;0.60;;;18.00;90.30;;;;;;4995121;28;20109;-86
2023/10/15 07:52:59;;;;;;;2.80;0.70;;;18.10;90.40;;;;;;4995072;28;20036;-85
2023/10/15 07:55:26;;;;;;;1.98;0.80;;;18.00;90.30;;;;;;4995047;28;20129;-86
2023/10/15 07:57:52;;;;;;;1.45;0.63;;;18.10;90.30;;;;;;4995136;28;20080;-86
2023/10/15 08:00:25;;;;;;;2.58;0.52;;;18.10;90.30;;;;;;4994981;28;20464;-86
2023/10/15 08:02:52;;;;;;;1.27;0.50;;;18.10;90.40;;;;;;5012418;28;20032;-86
2023/10/15 08:05:21;;;;;;;1.20;0.47;;;18.10;90.30;;;;;;5016392;28;20026;-86
2023/10/15 08:07:48;;;;;;;1.65;0.50;;;18.20;90.40;;;;;;5016470;28;20053;-86
2023/10/15 08:10:14;;;;;;;1.77;0.52;;;18.20;90.30;;;;;;4998917;28;20072;-85
2023/10/15 08:12:41;;;;;;;3.45;0.60;;;18.30;90.30;;;;;;4998664;28;20508;-86
2023/10/15 08:15:07;;;;;;;2.60;0.77;;;18.30;90.20;;;;;;4998683;28;20404;-86
2023/10/15 08:17:33;;;;;;;4.88;0.50;;;18.30;90.20;;;;;;5016601;28;20026;-86
2023/10/15 08:19:58;;;;;;;1.80;0.47;;;18.30;90.10;;;;;;4998745;28;20485;-86
2023/10/15 08:22:25;;;;;;;2.30;0.60;;;18.30;90.10;;;;;;4998204;28;20040;-86
2023/10/15 08:24:51;;;;;;;1.42;0.60;;;18.30;90.10;;;;;;5016106;28;20018;-86
2023/10/15 08:27:16;;;;;;;1.85;0.60;;;18.30;90.20;;;;;;4998564;28;20025;-86
2023/10/15 08:29:42;;;;;;;0.73;0.45;;;18.30;90.20;;;;;;4998681;28;20018;-86
2023/10/15 08:32:14;;;;;;;1.00;0.40;;;18.20;90.20;;;;;;4998197;28;20124;-85
2023/10/15 08:34:39;;;;;;;1.58;0.57;;;18.20;90.30;;;;;;4998510;28;20022;-85
2023/10/15 08:37:06;;;;;;;2.58;0.55;;;18.20;90.30;;;;;;4998538;28;20113;-86
2023/10/15 08:39:33;;;;;;;1.58;0.60;;;18.20;90.30;;;;;;4999449;28;20193;-86
2023/10/15 08:42:00;;;;;;;1.80;0.40;;;18.20;90.40;;;;;;4998233;28;20108;-86
2023/10/15 08:44:27;;;;;;;1.73;0.50;;;18.20;90.40;;;;;;4997989;28;20076;-86
2023/10/15 08:46:53;;;;;;;1.23;0.50;;;18.20;90.40;;;;;;4998237;28;20080;-86
2023/10/15 08:49:20;;;;;;;0.63;0.40;;;18.10;90.50;;;;;;4998073;28;20021;-86
2023/10/15 08:51:47;;;;;;;1.42;0.50;;;18.20;90.50;;;;;;4998372;28;20029;-86
2023/10/15 08:54:14;;;;;;;1.20;0.50;;;18.10;90.50;;;;;;4997887;28;20033;-86
2023/10/15 08:56:40;;;;;;;2.13;0.60;;;18.10;90.50;;;;;;5015470;28;20113;-86
2023/10/15 08:59:09;;;;;;;1.27;0.47;;;18.10;90.50;;;;;;4998008;28;20029;-86
2023/10/15 09:01:36;;;;;;;0.47;0.40;;;18.20;90.50;;;;;;4997821;28;20079;-86
2023/10/15 09:04:04;;;;;;;1.20;0.60;;;18.20;90.50;;;;;;4997417;28;20026;-86
2023/10/15 09:06:30;;;;;;;1.20;0.50;;;18.20;90.50;;;;;;5002579;28;20087;-86
2023/10/15 09:08:56;;;;;;;1.33;0.50;;;18.20;90.50;;;;;;5015321;28;20034;-86
2023/10/15 09:11:21;;;;;;;1.48;0.50;;;18.20;90.50;;;;;;5017460;28;20022;-86
2023/10/15 09:13:51;;;;;;;1.02;0.50;;;18.20;90.50;;;;;;5017134;28;20032;-85
2023/10/15 09:16:17;;;;;;;0.77;0.35;;;18.20;90.50;;;;;;5015889;28;20124;-86
2023/10/15 09:18:44;;;;;;;1.00;0.40;;;18.20;90.50;;;;;;5034925;28;20053;-86
2023/10/15 09:21:10;;;;;;;2.17;0.50;;;18.20;90.50;;;;;;5034870;28;20053;-86
2023/10/15 09:23:37;;;;;;;1.95;0.68;;;18.20;90.40;;;;;;5016632;28;20071;-86
2023/10/15 09:26:10;;;;;;;2.00;0.60;;;18.30;90.50;;;;;;5017005;28;20021;-86
2023/10/15 09:28:36;;;;;;;0.73;0.40;;;18.30;90.40;;;;;;5017181;28;20072;-86
2023/10/15 09:31:03;;;;;;;3.10;0.70;;;18.30;90.30;;;;;;5016939;28;20032;-86
2023/10/15 09:33:30;;;;;;;0.95;0.40;;;18.30;90.30;;;;;;5016723;28;20043;-86
2023/10/15 09:35:56;;;;;;;1.48;0.50;;;18.30;90.30;;;;;;5017080;28;20484;-86
2023/10/15 09:38:21;;;;;;;0.93;0.43;;;18.30;90.30;;;;;;5016889;28;20380;-87
2023/10/15 09:40:47;;;;;;;1.15;0.50;;;18.30;90.40;;;;;;5016921;28;20067;-86
2023/10/15 09:43:13;;;;;;;1.25;0.40;;;18.30;90.40;;;;;;5016611;28;20030;-86
2023/10/15 09:45:41;;;;;;;1.10;0.50;;;18.30;90.40;;;;;;5016847;28;20028;-86
2023/10/15 09:48:09;;;;;;;1.35;0.50;;;18.30;90.40;;;;;;5016763;28;20030;-86
2023/10/15 09:50:38;;;;;;;1.73;0.60;;;18.30;90.50;;;;;;5016756;28;20025;-86
2023/10/15 09:53:11;;;;;;;1.25;0.50;;;18.30;90.50;;;;;;5016336;28;20033;-86
2023/10/15 09:55:38;;;;;;;0.82;0.40;;;18.30;90.50;;;;;;5016584;28;20407;-86
2023/10/15 09:58:10;;;;;;;1.63;0.43;;;18.30;90.50;;;;;;5034258;28;20025;-86
2023/10/15 10:03:38;;;;;;;1.65;0.50;;;18.30;90.40;;;;;;5033806;28;20385;-86
2023/10/15 10:06:14;;;;;;;1.25;0.47;;;18.30;90.40;;;;;;5016431;28;20098;-86
2023/10/15 10:08:49;;;;;;;1.50;0.45;;;18.30;90.40;;;;;;5016341;28;20033;-86
2023/10/15 10:11:23;;;;;;;0.75;0.43;;;18.30;90.50;;;;;;5016304;28;20476;-86
2023/10/15 10:14:19;;;;;;;1.55;0.40;;;18.30;90.50;;;;;;5016039;28;20518;-86
2023/10/15 10:16:45;;;;;;;1.65;0.40;;;18.30;90.50;;;;;;5015894;28;20426;-87
2023/10/15 10:19:11;;;;;;;0.57;0.30;;;18.30;90.50;;;;;;5016103;28;20161;-87
2023/10/15 10:21:37;;;;;;;0.63;0.50;;;18.30;90.40;;;;;;5016029;28;20079;-86
2023/10/15 10:24:08;;;;;;;1.10;0.50;;;18.40;90.30;;;;;;5033356;28;20100;-86
2023/10/15 10:26:38;;;;;;;0.95;0.50;;;18.40;90.20;;;;;;5015928;28;20014;-86
2023/10/15 10:29:03;;;;;;;0.50;0.28;;;18.40;90.20;;;;;;5015888;28;20032;-86
2023/10/15 10:31:33;;;;;;;0.88;0.40;;;18.50;90.20;;;;;;5033615;28;20026;-86
2023/10/15 10:34:03;;;;;;;1.77;0.50;;;18.50;90.20;;;;;;5033337;28;20079;-86
2023/10/15 10:36:30;;;;;;;1.38;0.52;;;18.40;90.20;;;;;;5033517;28;20080;-86
2023/10/15 10:38:59;;;;;;;0.93;0.47;;;18.40;90.20;;;;;;5015792;28;20021;-86
2023/10/15 10:41:36;;;;;;;1.17;0.60;;;18.40;90.30;;;;;;5015718;28;20034;-86
2023/10/15 10:44:06;;;;;;;1.08;0.50;;;18.40;90.30;;;;;;5015278;28;20116;-86
2023/10/15 10:46:40;;;;;;;1.45;0.57;;;18.40;90.30;;;;;;5015680;28;20024;-86
2023/10/15 10:49:17;;;;;;;0.60;0.32;;;18.40;90.30;;;;;;5015662;28;20487;-86
2023/10/15 10:52:02;;;;;;;1.13;0.40;;;18.40;90.30;;;;;;5033267;28;20096;-86
2023/10/15 10:54:28;;;;;;;1.17;0.50;;;18.50;90.20;;;;;;5015306;28;20025;-86
2023/10/15 10:56:55;;;;;;;0.95;0.50;;;18.50;90.20;;;;;;5033133;28;20026;-86
2023/10/15 10:59:21;;;;;;;1.05;0.40;;;18.50;90.10;;;;;;5015551;28;20108;-86
2023/10/15 11:01:47;;;;;;;1.85;0.40;;;18.50;90.10;;;;;;5015379;28;20114;-86
2023/10/15 11:04:16;;;;;;;0.77;0.43;;;18.50;90.10;;;;;;5015151;28;20113;-86
2023/10/15 11:06:45;;;;;;;1.13;0.43;;;18.50;90.10;;;;;;5015251;28;20075;-86
2023/10/15 11:09:20;;;;;;;1.63;0.52;;;18.50;90.10;;;;;;5015425;28;20018;-86
2023/10/15 11:11:49;;;;;;;1.15;0.40;;;18.50;90.20;;;;;;5015928;28;20045;-86
2023/10/15 11:14:16;;;;;;;0.65;0.50;;;18.50;90.20;;;;;;5015195;28;20034;-86
2023/10/15 11:16:42;;;;;;;0.98;0.40;;;18.50;90.20;;;;;;5032478;28;20026;-86
2023/10/15 11:19:14;;;;;;;1.20;0.32;;;18.50;90.20;;;;;;5015175;28;20044;-86
2023/10/15 11:21:40;;;;;;;;;;;18.60;90.20;;;;;;5015464;28;20028;-86
2023/10/15 11:24:09;;;;;;;1.17;0.40;;;18.60;90.20;;;;;;5014907;28;19955;-86
2023/10/15 11:26:36;;;;;;;1.05;0.45;;;18.60;90.20;;;;;;5015122;28;20017;-87
2023/10/15 11:29:02;;;;;;;1.02;0.50;;;18.50;90.20;;;;;;5015078;28;20083;-86
2023/10/15 11:31:27;;;;;;;1.23;0.40;;;18.60;90.10;;;;;;5015041;28;20025;-86
2023/10/15 11:33:54;;;;;;;0.38;0.20;;;18.60;90.10;;;;;;5014809;28;20033;-86
2023/10/15 11:36:22;;;;;;;0.55;0.40;;;18.50;90.10;;;;;;5032549;28;20028;-86
2023/10/15 11:38:49;;;;;;;0.55;0.35;;;18.50;90.10;;;;;;5014584;28;20470;-86
2023/10/15 11:41:15;;;;;;;1.35;0.40;;;18.50;90.10;;;;;;5015012;28;20029;-86
2023/10/15 11:43:43;;;;;;;0.43;0.30;;;18.50;90.10;;;;;;5014882;28;20052;-86
2023/10/15 11:46:10;;;;;;;1.75;0.43;;;18.60;90.10;;;;;;5014986;28;20108;-86
2023/10/15 11:48:37;;;;;;;1.38;0.40;;;18.60;90.10;;;;;;5014938;28;20026;-86
2023/10/15 11:51:08;;;;;;;0.98;0.40;;;18.60;90.10;;;;;;5014797;28;20021;-87
2023/10/15 11:53:33;;;;;;;2.20;0.30;;;18.60;90.10;;;;;;5014711;28;20022;-86
2023/10/15 11:56:02;;;;;;;1.05;0.40;;;18.60;90.10;;;;;;5014790;28;20021;-86
2023/10/15 11:58:31;;;;;;;1.23;0.47;;;18.60;90.10;;;;;;5014821;28;20022;-86
2023/10/15 12:00:58;;;;;;;1.48;0.38;;;18.60;90.00;;;;;;5014650;28;20029;-86
2023/10/15 12:03:24;;;;;;;0.40;0.30;;;18.60;90.10;;;;;;5014444;28;20032;-86
2023/10/15 12:05:51;;;;;;;0.88;0.40;;;18.60;90.00;;;;;;5014727;28;20025;-86
2023/10/15 12:08:24;;;;;;;1.50;0.40;;;18.60;90.10;;;;;;5014838;28;20053;-86
2023/10/15 12:10:51;;;;;;;0.80;0.30;;;18.50;90.10;;;;;;5014759;28;20025;-86
2023/10/15 12:13:16;;;;;;;0.45;0.20;;;18.50;90.10;;;;;;5014535;28;20026;-86
2023/10/15 12:15:42;;;;;;;0.93;0.40;;;18.50;90.10;;;;;;5032061;28;20029;-86
2023/10/15 12:18:08;;;;;;;1.08;0.50;;;18.50;90.20;;;;;;5014800;28;20037;-86
2023/10/15 12:20:34;;;;;;;0.73;0.40;;;18.50;90.20;;;;;;5014686;28;20025;-86
2023/10/15 12:23:00;;;;;;;0.95;0.43;;;18.50;90.20;;;;;;5014177;28;20450;-85
2023/10/15 12:25:25;;;;;;;1.33;0.52;;;18.50;90.20;;;;;;5032687;28;20021;-86
2023/10/15 12:27:51;;;;;;;0.30;0.20;;;18.50;90.20;;;;;;5014786;28;20480;-86
2023/10/15 12:30:23;;;;;;;0.50;0.30;;;18.60;90.20;;;;;;5014336;28;20021;-86
2023/10/15 12:32:53;;;;;;;;;;;18.50;90.10;;;;;;5014790;28;20026;-86
2023/10/15 12:35:19;;;;;;;0.90;0.50;;;18.50;90.10;;;;;;5032462;28;19912;-86
2023/10/15 12:37:46;;;;;;;1.90;0.40;;;18.50;90.10;;;;;;5014456;28;20029;-86
2023/10/15 12:40:21;;;;;;;0.98;0.30;;;18.60;90.10;;;;;;5014384;28;20075;-86
2023/10/15 12:42:47;;;;;;;0.40;0.32;;;18.50;90.10;;;;;;5014212;28;20037;-86
2023/10/15 12:45:13;;;;;;;0.77;0.40;;;18.50;90.10;;;;;;5014219;28;20397;-86
2023/10/15 12:47:39;;;;;;;1.23;0.40;;;18.50;90.10;;;;;;5014414;28;20104;-86
2023/10/15 12:50:14;;;;;;;1.38;0.43;;;18.50;90.10;;;;;;5032485;28;20053;-85
2023/10/15 12:52:47;;;;;;;1.27;0.40;;;18.50;90.20;;;;;;5035477;28;20030;-86
2023/10/15 12:55:19;;;;;;;0.57;0.32;;;18.50;90.20;;;;;;5035586;28;20034;-86
2023/10/15 12:57:50;;;;;;;0.98;0.30;;;18.50;90.20;;;;;;5035723;28;20071;-86
2023/10/15 13:00:21;;;;;;;0.93;0.40;;;18.40;90.20;;;;;;5017934;28;20029;-86
2023/10/15 13:02:50;;;;;;;0.80;0.30;;;18.50;90.20;;;;;;5017333;28;20280;-86
2023/10/15 13:05:17;;;;;;;1.38;0.50;;;18.50;90.20;;;;;;5017510;28;20028;-86
2023/10/15 13:07:43;;;;;;;0.68;0.32;;;18.50;90.20;;;;;;5035146;28;20033;-86
2023/10/15 13:10:09;;;;;;;0.82;0.50;;;18.50;90.20;;;;;;5017393;28;20048;-86
2023/10/15 13:12:36;;;;;;;0.80;0.40;;;18.50;90.20;;;;;;5035061;28;20082;-86